Time;durP1;ratioP1;P1;durP2;ratioP2;P2;SDS_P1;SDS_P2;PMS_P1;PMS_P2;Temp;Humidity;BMP_temperature;BMP_pressure;BME280_temperature;BME280_humidity;BME280_pressure;Samples;Min_cycle;Max_cycle;Signal;HPM_P1;HPM_P2
2021/07/26 00:02:00;;;;;;;6.50;4.57;;;18.30;99.90;;;;;;4811242;29;20420;-87
2021/07/26 00:04:27;;;;;;;6.82;4.68;;;18.20;99.90;;;;;;4812511;29;20397;-86
2021/07/26 00:06:54;;;;;;;6.00;4.18;;;18.30;99.90;;;;;;4803347;29;20085;-86
2021/07/26 00:09:21;;;;;;;7.75;4.60;;;18.30;99.90;;;;;;4809026;29;20054;-86
2021/07/26 00:11:48;;;;;;;6.95;4.68;;;18.30;99.90;;;;;;4810651;29;20054;-86
2021/07/26 00:14:28;;;;;;;6.38;5.03;;;18.30;99.90;;;;;;4799703;29;20165;-90
2021/07/26 00:17:23;;;;;;;8.52;4.82;;;18.30;99.90;;;;;;4819176;29;20168;-89
2021/07/26 00:19:53;;;;;;;6.97;4.35;;;18.30;99.90;;;;;;4769222;29;20084;-87
2021/07/26 00:22:21;;;;;;;9.88;4.93;;;18.30;99.90;;;;;;4806619;29;20077;-87
2021/07/26 00:24:48;;;;;;;6.03;4.00;;;18.30;99.90;;;;;;4799001;29;20064;-87
2021/07/26 00:27:15;;;;;;;7.68;6.18;;;18.40;99.90;;;;;;4811799;29;20134;-87
2021/07/26 00:29:42;;;;;;;6.57;4.30;;;18.40;99.90;;;;;;4798762;29;20440;-87
2021/07/26 00:32:09;;;;;;;5.45;4.72;;;18.40;99.90;;;;;;4810961;29;20051;-87
2021/07/26 00:34:48;;;;;;;8.68;5.35;;;18.40;99.90;;;;;;2620821;29;10002387;-88
2021/07/26 00:37:20;;;;;;;4.90;4.38;;;18.40;99.90;;;;;;3132057;29;10001330;-87
2021/07/26 00:39:47;;;;;;;6.47;4.45;;;18.40;99.90;;;;;;4806100;29;20364;-87
2021/07/26 00:42:14;;;;;;;5.07;4.07;;;18.40;99.90;;;;;;4802713;29;20050;-87
2021/07/26 00:44:41;;;;;;;5.85;3.67;;;18.40;99.90;;;;;;4793888;29;20138;-87
2021/07/26 00:47:09;;;;;;;6.15;5.35;;;18.40;99.90;;;;;;4804876;29;20071;-87
2021/07/26 00:49:36;;;;;;;6.63;4.13;;;18.40;99.90;;;;;;4806651;29;20632;-87
2021/07/26 00:52:06;;;;;;;7.38;5.53;;;18.50;99.90;;;;;;4807252;29;20061;-87
2021/07/26 00:54:39;;;;;;;9.02;4.38;;;18.50;99.90;;;;;;4801498;29;20039;-87
2021/07/26 00:57:07;;;;;;;7.63;4.25;;;18.50;99.90;;;;;;4811017;29;20057;-87
2021/07/26 00:59:35;;;;;;;10.07;5.03;;;18.50;99.90;;;;;;4810422;29;20051;-87
2021/07/26 01:02:02;;;;;;;4.10;3.70;;;18.50;99.90;;;;;;4810828;29;20441;-87
2021/07/26 01:04:30;;;;;;;8.52;4.18;;;18.50;99.90;;;;;;4808077;29;20050;-87
2021/07/26 01:06:57;;;;;;;6.30;3.72;;;18.50;99.90;;;;;;4807858;29;20457;-87
2021/07/26 01:09:25;;;;;;;5.75;4.03;;;18.50;99.90;;;;;;4809041;29;20361;-87
2021/07/26 01:11:53;;;;;;;5.55;3.15;;;18.50;99.90;;;;;;4799928;29;20042;-87
2021/07/26 01:14:20;;;;;;;6.60;3.33;;;18.50;99.90;;;;;;4815970;29;20073;-87
2021/07/26 01:16:48;;;;;;;6.05;4.03;;;18.50;99.90;;;;;;4814997;29;20137;-87
2021/07/26 01:19:16;;;;;;;6.00;4.35;;;18.50;99.90;;;;;;4815155;29;20058;-88
2021/07/26 01:21:44;;;;;;;5.07;2.92;;;18.50;99.90;;;;;;4814870;29;20053;-87
2021/07/26 01:24:11;;;;;;;5.72;3.72;;;18.50;99.90;;;;;;4806919;29;20167;-87
2021/07/26 01:26:38;;;;;;;4.63;3.35;;;18.60;99.90;;;;;;4820262;29;20054;-87
2021/07/26 01:29:07;;;;;;;5.40;3.45;;;18.60;99.90;;;;;;4799094;29;20097;-87
2021/07/26 01:31:34;;;;;;;4.32;3.22;;;18.60;99.90;;;;;;4811436;29;20061;-87
2021/07/26 01:34:02;;;;;;;5.57;3.47;;;18.60;99.90;;;;;;4815684;29;20058;-87
2021/07/26 01:36:29;;;;;;;6.97;3.97;;;18.60;99.90;;;;;;4798800;29;20681;-87
2021/07/26 01:38:56;;;;;;;4.65;3.38;;;18.60;99.90;;;;;;4815544;29;20070;-86
2021/07/26 01:41:28;;;;;;;9.68;4.15;;;18.60;99.90;;;;;;4813245;29;20090;-86
2021/07/26 01:44:03;;;;;;;6.95;3.30;;;18.60;99.90;;;;;;4797350;29;20144;-87
2021/07/26 01:46:40;;;;;;;7.18;3.33;;;18.50;99.90;;;;;;4797882;29;20458;-87
2021/07/26 01:49:40;;;;;;;5.53;3.53;;;18.50;99.90;;;;;;4809004;29;20043;-87
2021/07/26 01:52:09;;;;;;;5.10;3.08;;;18.50;99.90;;;;;;4810060;29;20123;-87
2021/07/26 01:54:36;;;;;;;11.20;4.38;;;18.50;99.90;;;;;;4804074;29;20052;-87
2021/07/26 01:57:03;;;;;;;4.32;3.38;;;18.50;99.90;;;;;;4826165;29;20116;-87
2021/07/26 01:59:31;;;;;;;4.82;3.40;;;18.50;99.90;;;;;;4795721;29;20365;-87
2021/07/26 02:01:58;;;;;;;4.57;3.15;;;18.40;99.90;;;;;;4810790;29;20055;-87
2021/07/26 02:04:27;;;;;;;5.57;3.17;;;18.40;99.90;;;;;;4805942;29;20056;-86
2021/07/26 02:06:54;;;;;;;8.50;3.78;;;18.40;99.90;;;;;;4813749;29;20067;-87
2021/07/26 02:09:21;;;;;;;7.35;3.42;;;18.40;99.90;;;;;;4822079;29;20053;-86
2021/07/26 02:11:48;;;;;;;3.63;3.33;;;18.40;99.90;;;;;;4799823;29;20127;-87
2021/07/26 02:14:15;;;;;;;5.47;3.40;;;18.40;99.90;;;;;;4797592;29;20065;-87
2021/07/26 02:16:42;;;;;;;5.78;2.80;;;18.50;99.90;;;;;;4822917;29;20066;-87
2021/07/26 02:19:09;;;;;;;4.47;3.22;;;18.40;99.90;;;;;;4801945;29;20065;-87
2021/07/26 02:21:36;;;;;;;5.38;3.47;;;18.40;99.90;;;;;;4811410;29;20082;-87
2021/07/26 02:24:07;;;;;;;7.50;3.78;;;18.50;99.90;;;;;;4803232;29;20599;-86
2021/07/26 02:26:34;;;;;;;7.00;2.85;;;18.50;99.90;;;;;;4811648;29;20089;-86
2021/07/26 02:29:02;;;;;;;3.85;2.65;;;18.40;99.90;;;;;;4809305;29;20061;-86
2021/07/26 02:31:29;;;;;;;6.90;3.53;;;18.40;99.90;;;;;;4815871;29;20132;-87
2021/07/26 02:33:56;;;;;;;5.20;3.47;;;18.40;99.90;;;;;;4809149;29;20054;-87
2021/07/26 02:36:22;;;;;;;5.15;3.28;;;18.40;99.90;;;;;;4825440;29;20054;-86
2021/07/26 02:38:49;;;;;;;5.68;2.97;;;18.40;99.90;;;;;;4813190;29;20055;-87
2021/07/26 02:41:16;;;;;;;3.85;2.63;;;18.40;99.90;;;;;;4811792;29;20066;-87
2021/07/26 02:43:44;;;;;;;5.25;3.15;;;18.40;99.90;;;;;;4812831;29;20473;-86
2021/07/26 02:46:10;;;;;;;5.05;4.20;;;18.40;99.90;;;;;;4797286;29;20106;-87
2021/07/26 02:48:39;;;;;;;3.72;3.25;;;18.40;99.90;;;;;;4807152;29;20050;-87
2021/07/26 02:51:06;;;;;;;6.65;3.42;;;18.40;99.90;;;;;;4809024;29;20424;-87
2021/07/26 02:53:34;;;;;;;5.72;3.83;;;18.40;99.90;;;;;;4793336;29;20115;-87
2021/07/26 02:56:09;;;;;;;6.57;3.88;;;18.40;99.90;;;;;;4800438;29;20130;-88
2021/07/26 02:58:36;;;;;;;4.32;3.92;;;18.40;99.90;;;;;;4824032;29;20054;-90
2021/07/26 03:01:07;;;;;;;3.13;2.85;;;18.40;99.90;;;;;;4814408;29;20043;-88
2021/07/26 03:03:35;;;;;;;4.68;2.85;;;18.40;99.90;;;;;;4825790;29;20069;-88
2021/07/26 03:06:02;;;;;;;6.03;4.03;;;18.40;99.90;;;;;;4821874;29;20477;-88
2021/07/26 03:08:30;;;;;;;7.55;3.42;;;18.40;99.90;;;;;;4813502;29;20062;-87
2021/07/26 03:11:02;;;;;;;6.35;4.50;;;18.40;99.90;;;;;;4812337;29;20725;-89
2021/07/26 03:13:31;;;;;;;5.80;3.30;;;18.50;99.90;;;;;;4796070;29;20042;-88
2021/07/26 03:16:10;;;;;;;4.57;3.58;;;18.50;99.90;;;;;;4813160;29;20126;-89
2021/07/26 03:18:38;;;;;;;5.80;3.08;;;18.50;99.90;;;;;;4813436;29;20077;-89
2021/07/26 03:21:05;;;;;;;5.45;2.97;;;18.50;99.90;;;;;;4812725;29;20046;-88
2021/07/26 03:23:33;;;;;;;8.88;3.50;;;18.50;99.90;;;;;;4813822;29;20046;-89
2021/07/26 03:26:00;;;;;;;6.53;3.40;;;18.50;99.90;;;;;;4804197;29;20050;-89
2021/07/26 03:28:27;;;;;;;6.75;3.67;;;18.50;99.90;;;;;;4811285;29;20694;-89
2021/07/26 03:30:54;;;;;;;4.65;3.50;;;18.50;99.90;;;;;;4796959;29;20077;-88
2021/07/26 03:33:21;;;;;;;5.65;3.03;;;18.60;99.90;;;;;;4810206;29;20051;-88
2021/07/26 03:35:48;;;;;;;3.58;3.28;;;18.60;99.90;;;;;;4812413;29;20043;-89
2021/07/26 03:38:15;;;;;;;4.15;3.22;;;18.60;99.90;;;;;;4814903;29;20108;-89
2021/07/26 03:40:42;;;;;;;6.80;3.42;;;18.60;99.90;;;;;;4800872;29;20054;-89
2021/07/26 03:43:09;;;;;;;3.30;2.95;;;18.60;99.90;;;;;;4814083;29;20062;-89
2021/07/26 03:45:36;;;;;;;4.25;2.78;;;18.70;99.90;;;;;;4808919;29;20069;-89
2021/07/26 03:48:03;;;;;;;6.00;4.05;;;18.70;99.90;;;;;;4812368;29;20511;-89
2021/07/26 03:50:30;;;;;;;6.10;3.80;;;18.70;99.90;;;;;;4812344;29;20055;-89
2021/07/26 03:52:58;;;;;;;7.53;3.00;;;18.80;99.90;;;;;;4810948;29;20046;-89
2021/07/26 03:55:31;;;;;;;5.03;3.85;;;18.80;99.90;;;;;;4810221;29;20541;-89
2021/07/26 03:57:59;;;;;;;4.55;3.53;;;18.80;99.90;;;;;;4799086;29;20081;-89
2021/07/26 04:00:30;;;;;;;6.53;3.67;;;18.80;99.90;;;;;;4798069;29;20134;-89
2021/07/26 04:08:05;;;;;;;3.58;2.67;;;18.90;99.90;;;;;;4808052;29;20057;-88
2021/07/26 04:10:33;;;;;;;4.90;3.50;;;19.00;99.90;;;;;;4809560;29;20050;-89
2021/07/26 04:13:00;;;;;;;7.38;3.58;;;19.00;99.90;;;;;;4812928;29;20301;-88
2021/07/26 04:15:27;;;;;;;4.80;3.40;;;19.00;99.90;;;;;;4809123;29;20046;-89
2021/07/26 04:17:54;;;;;;;4.30;3.90;;;19.10;99.90;;;;;;4804445;29;20043;-89
2021/07/26 04:20:21;;;;;;;5.18;3.50;;;19.10;99.90;;;;;;4806648;29;20046;-89
2021/07/26 04:22:48;;;;;;;6.20;3.60;;;19.20;99.90;;;;;;4805212;29;20767;-88
2021/07/26 04:25:15;;;;;;;5.75;3.05;;;19.20;99.90;;;;;;4808130;29;20043;-89
2021/07/26 04:27:42;;;;;;;6.13;3.80;;;19.30;99.90;;;;;;4795570;29;20061;-89
2021/07/26 04:30:10;;;;;;;9.55;3.55;;;19.40;99.90;;;;;;4813886;29;20058;-88
2021/07/26 04:32:41;;;;;;;4.13;3.72;;;19.40;99.90;;;;;;4805937;29;20059;-88
2021/07/26 04:35:09;;;;;;;5.35;2.78;;;19.50;99.90;;;;;;4813115;29;20050;-89
2021/07/26 04:37:37;;;;;;;7.28;3.35;;;19.50;99.90;;;;;;4807686;29;20358;-87
2021/07/26 04:40:05;;;;;;;4.93;2.95;;;19.60;99.90;;;;;;4809605;29;20043;-89
2021/07/26 04:42:31;;;;;;;6.25;3.25;;;19.60;99.90;;;;;;4810080;29;20409;-89
2021/07/26 04:44:58;;;;;;;4.70;3.10;;;19.80;99.90;;;;;;4804066;29;20066;-88
2021/07/26 04:47:26;;;;;;;6.53;3.58;;;19.80;99.90;;;;;;4791745;29;20473;-89
2021/07/26 04:49:58;;;;;;;6.70;4.10;;;19.90;99.90;;;;;;4795073;29;20769;-89
2021/07/26 04:52:25;;;;;;;6.95;3.42;;;20.00;99.90;;;;;;4818390;29;20106;-89
2021/07/26 04:54:53;;;;;;;4.10;2.90;;;20.00;99.90;;;;;;4815256;29;20057;-90
2021/07/26 04:57:20;;;;;;;3.40;2.83;;;20.10;99.90;;;;;;4818318;29;20054;-89
2021/07/26 04:59:47;;;;;;;5.90;3.00;;;20.20;99.90;;;;;;4812831;29;20054;-89
2021/07/26 05:02:14;;;;;;;5.22;2.92;;;20.20;99.90;;;;;;4818549;29;20106;-89
2021/07/26 05:04:41;;;;;;;3.80;2.60;;;20.30;99.90;;;;;;4833607;29;20058;-89
2021/07/26 05:07:08;;;;;;;5.50;3.53;;;20.40;99.90;;;;;;4818461;29;20046;-89
2021/07/26 05:09:39;;;;;;;6.22;2.90;;;20.40;99.90;;;;;;4816372;29;20065;-89
2021/07/26 05:12:12;;;;;;;8.30;4.80;;;20.50;99.90;;;;;;4821368;29;20050;-88
2021/07/26 05:14:43;;;;;;;4.85;3.50;;;20.70;99.90;;;;;;4819305;29;20479;-89
2021/07/26 05:17:11;;;;;;;4.18;3.25;;;20.70;99.90;;;;;;4823717;29;20150;-89
2021/07/26 05:19:38;;;;;;;5.20;3.55;;;20.80;99.90;;;;;;4811610;29;20486;-90
2021/07/26 05:22:05;;;;;;;8.68;3.47;;;20.90;99.90;;;;;;4806817;29;20065;-89
2021/07/26 05:24:33;;;;;;;6.03;3.92;;;21.00;99.90;;;;;;4802496;29;20398;-89
2021/07/26 05:27:04;;;;;;;5.57;3.13;;;21.10;99.90;;;;;;4816753;29;20082;-90
2021/07/26 05:29:31;;;;;;;3.78;3.22;;;21.10;99.90;;;;;;4811194;29;20046;-89
2021/07/26 05:31:59;;;;;;;7.38;3.53;;;21.20;99.90;;;;;;4800191;29;20145;-88
2021/07/26 05:34:27;;;;;;;8.82;4.13;;;21.20;99.90;;;;;;4821576;29;20418;-89
2021/07/26 05:36:54;;;;;;;6.70;3.22;;;21.30;99.90;;;;;;4797675;29;20160;-88
2021/07/26 05:39:25;;;;;;;4.32;3.78;;;21.40;99.90;;;;;;4807261;29;20743;-88
2021/07/26 05:41:53;;;;;;;7.15;4.20;;;21.50;99.90;;;;;;4815343;29;20779;-89
2021/07/26 05:44:20;;;;;;;4.35;3.13;;;21.50;99.90;;;;;;4815939;29;20465;-87
2021/07/26 05:46:47;;;;;;;3.58;2.67;;;21.60;99.90;;;;;;4802346;29;20443;-88
2021/07/26 05:49:15;;;;;;;3.92;2.78;;;21.70;99.90;;;;;;4815387;29;20066;-88
2021/07/26 05:51:42;;;;;;;4.00;3.40;;;21.70;99.90;;;;;;4803433;29;20062;-88
2021/07/26 05:54:09;;;;;;;10.05;3.28;;;21.80;99.90;;;;;;4800409;29;20065;-88
2021/07/26 05:56:49;;;;;;;3.90;2.40;;;21.80;99.90;;;;;;4807448;29;20409;-89
2021/07/26 05:59:17;;;;;;;5.63;4.00;;;21.90;99.90;;;;;;4828209;29;20061;-88
2021/07/26 06:01:47;;;;;;;4.82;2.80;;;22.00;99.90;;;;;;4813529;29;20110;-88
2021/07/26 06:04:19;;;;;;;4.85;2.97;;;22.00;99.90;;;;;;4810151;29;20046;-88
2021/07/26 06:06:51;;;;;;;9.93;3.58;;;22.10;99.90;;;;;;4816489;29;20050;-88
2021/07/26 06:09:18;;;;;;;3.72;3.13;;;22.20;99.90;;;;;;4812544;29;20046;-88
2021/07/26 06:11:45;;;;;;;7.15;3.65;;;22.30;99.90;;;;;;4814017;29;20054;-88
2021/07/26 06:14:13;;;;;;;3.88;3.28;;;22.30;99.90;;;;;;4811130;29;20100;-88
2021/07/26 06:16:51;;;;;;;4.10;2.83;;;22.30;99.90;;;;;;4812486;29;20062;-88
2021/07/26 06:19:19;;;;;;;4.35;2.92;;;22.40;99.90;;;;;;4812865;29;20595;-89
2021/07/26 06:21:54;;;;;;;4.20;2.90;;;22.50;99.90;;;;;;4812261;29;20062;-88
2021/07/26 06:24:23;;;;;;;8.57;3.38;;;22.60;99.90;;;;;;4812342;29;20142;-89
2021/07/26 06:26:58;;;;;;;3.85;3.35;;;22.60;99.90;;;;;;4808687;29;20114;-89
2021/07/26 06:29:25;;;;;;;4.43;2.90;;;22.70;99.90;;;;;;4807431;29;20054;-88
2021/07/26 06:31:52;;;;;;;3.55;2.47;;;22.80;99.90;;;;;;4807045;29;20578;-88
2021/07/26 06:34:19;;;;;;;4.78;3.08;;;22.90;99.90;;;;;;4807169;29;20042;-89
2021/07/26 06:36:47;;;;;;;4.78;2.90;;;23.00;99.90;;;;;;4810667;29;20553;-88
2021/07/26 06:39:14;;;;;;;3.50;2.15;;;23.10;99.90;;;;;;4813727;29;20073;-89
2021/07/26 06:41:41;;;;;;;6.00;3.13;;;23.10;99.90;;;;;;4811200;29;20257;-88
2021/07/26 06:44:08;;;;;;;3.78;3.22;;;23.20;99.90;;;;;;4809339;29;20479;-88
2021/07/26 06:46:38;;;;;;;3.95;2.92;;;23.30;99.90;;;;;;4811763;29;20062;-87
2021/07/26 06:49:05;;;;;;;6.45;2.95;;;23.30;99.90;;;;;;4815704;29;20143;-88
2021/07/26 06:51:32;;;;;;;7.32;3.60;;;23.40;99.90;;;;;;4812225;29;20103;-88
2021/07/26 06:53:59;;;;;;;3.78;3.22;;;23.40;99.90;;;;;;4813675;29;20046;-88
2021/07/26 06:56:26;;;;;;;5.82;3.38;;;23.40;99.90;;;;;;4815415;29;20050;-88
2021/07/26 06:58:53;;;;;;;3.65;2.70;;;23.50;99.90;;;;;;4809825;29;20054;-88
2021/07/26 07:01:20;;;;;;;5.13;2.65;;;23.60;99.90;;;;;;4814025;29;20803;-89
2021/07/26 07:03:47;;;;;;;8.98;5.25;;;23.70;99.90;;;;;;4811791;29;20054;-87
2021/07/26 07:06:15;;;;;;;3.92;2.60;;;23.80;99.90;;;;;;4814930;29;20050;-89
2021/07/26 07:08:43;;;;;;;3.70;2.85;;;23.80;99.90;;;;;;4808032;29;20066;-89
2021/07/26 07:11:11;;;;;;;5.25;3.47;;;23.90;99.90;;;;;;4813907;29;20050;-88
2021/07/26 07:13:43;;;;;;;7.38;3.17;;;24.00;99.90;;;;;;4808250;29;20054;-88
2021/07/26 07:16:18;;;;;;;3.80;2.88;;;24.10;99.90;;;;;;4813158;29;20047;-88
2021/07/26 07:18:47;;;;;;;5.18;3.13;;;24.20;99.90;;;;;;4820219;29;20046;-88
2021/07/26 07:21:18;;;;;;;3.15;2.85;;;24.20;99.90;;;;;;4814303;29;20043;-88
2021/07/26 07:23:46;;;;;;;3.45;3.15;;;24.30;99.90;;;;;;4811728;29;20058;-89
2021/07/26 07:26:15;;;;;;;6.13;3.25;;;24.40;99.90;;;;;;4816450;29;20103;-88
2021/07/26 07:28:44;;;;;;;4.10;3.33;;;24.40;99.90;;;;;;4811038;29;20497;-88
2021/07/26 07:31:13;;;;;;;7.35;3.50;;;24.50;99.90;;;;;;4812737;29;20074;-88
2021/07/26 07:33:39;;;;;;;3.40;3.10;;;24.50;99.90;;;;;;4809305;29;20142;-89
2021/07/26 07:36:07;;;;;;;4.43;3.53;;;24.50;99.90;;;;;;4816665;29;20058;-89
2021/07/26 07:38:34;;;;;;;4.47;2.90;;;24.60;99.90;;;;;;4813655;29;20089;-88
2021/07/26 07:41:02;;;;;;;4.32;3.47;;;24.70;99.90;;;;;;4811158;29;20473;-88
2021/07/26 07:43:30;;;;;;;8.45;3.97;;;24.60;99.90;;;;;;4810404;29;20062;-89
2021/07/26 07:45:58;;;;;;;3.63;2.90;;;24.60;99.90;;;;;;4813840;29;20046;-88
2021/07/26 07:48:27;;;;;;;6.88;3.83;;;24.70;99.90;;;;;;4813045;29;20126;-87
2021/07/26 07:50:55;;;;;;;4.35;3.60;;;24.80;99.90;;;;;;4815016;29;20532;-88
2021/07/26 07:53:23;;;;;;;5.18;3.35;;;24.80;99.90;;;;;;4804819;29;20074;-89
2021/07/26 07:55:53;;;;;;;8.00;3.47;;;24.90;99.90;;;;;;4812322;29;20046;-87
2021/07/26 07:58:20;;;;;;;5.15;4.07;;;25.10;99.90;;;;;;4815843;29;20056;-88
2021/07/26 08:00:51;;;;;;;6.32;3.45;;;25.20;99.90;;;;;;4810589;29;20050;-88
2021/07/26 08:03:22;;;;;;;3.40;3.10;;;25.40;99.90;;;;;;4821591;29;20119;-88
2021/07/26 08:05:49;;;;;;;4.80;3.65;;;25.50;99.90;;;;;;4814481;29;20062;-87
2021/07/26 08:08:17;;;;;;;8.57;3.95;;;25.60;99.90;;;;;;4810736;29;20085;-88
2021/07/26 08:10:44;;;;;;;17.13;6.18;;;25.80;99.90;;;;;;4815937;29;20058;-88
2021/07/26 08:13:12;;;;;;;5.72;3.55;;;25.80;99.90;;;;;;4814373;29;20141;-88
2021/07/26 08:15:39;;;;;;;5.05;4.30;;;25.90;99.90;;;;;;4811025;29;20095;-89
2021/07/26 08:18:06;;;;;;;6.18;4.45;;;26.00;99.90;;;;;;4813417;29;20056;-88
2021/07/26 08:20:33;;;;;;;4.85;3.55;;;26.00;99.90;;;;;;4804054;29;20073;-89
2021/07/26 08:23:00;;;;;;;6.97;4.72;;;26.00;99.90;;;;;;4812044;29;20067;-88
2021/07/26 08:25:29;;;;;;;5.70;4.40;;;26.10;99.90;;;;;;4809744;29;20106;-88
2021/07/26 08:27:57;;;;;;;5.63;4.25;;;26.20;99.90;;;;;;4805593;29;20091;-88
2021/07/26 08:30:27;;;;;;;5.78;3.90;;;26.30;99.90;;;;;;4813940;29;20055;-89
2021/07/26 08:32:59;;;;;;;9.77;4.50;;;26.40;99.90;;;;;;4811385;29;21075;-88
2021/07/26 08:35:26;;;;;;;6.65;3.90;;;26.50;99.90;;;;;;4813405;29;20406;-88
2021/07/26 08:37:54;;;;;;;9.73;4.82;;;26.60;99.90;;;;;;4812713;29;20053;-88
2021/07/26 08:40:22;;;;;;;5.22;4.25;;;26.70;99.90;;;;;;4814525;29;20103;-89
2021/07/26 08:42:50;;;;;;;7.43;4.43;;;26.70;99.90;;;;;;4814801;29;20095;-89
2021/07/26 08:45:18;;;;;;;8.30;4.03;;;26.80;99.90;;;;;;4814880;29;20577;-89
2021/07/26 08:47:46;;;;;;;4.93;4.22;;;26.80;99.90;;;;;;4810625;29;20111;-89
2021/07/26 08:50:18;;;;;;;4.72;4.32;;;26.90;99.90;;;;;;4814668;29;20087;-89
2021/07/26 08:52:48;;;;;;;8.65;5.38;;;27.00;99.90;;;;;;4795967;29;20563;-89
2021/07/26 08:55:19;;;;;;;5.63;4.47;;;27.00;99.90;;;;;;4809199;29;20054;-89
2021/07/26 08:57:47;;;;;;;5.72;3.85;;;27.10;99.90;;;;;;4810187;29;20058;-89
2021/07/26 09:00:17;;;;;;;6.65;4.68;;;27.20;99.90;;;;;;4814354;29;20078;-89
2021/07/26 09:02:49;;;;;;;5.55;4.03;;;27.30;99.90;;;;;;4811381;29;21172;-89
2021/07/26 09:05:17;;;;;;;5.53;5.00;;;27.30;99.90;;;;;;4809342;29;20039;-88
2021/07/26 09:07:46;;;;;;;9.50;5.07;;;27.30;99.90;;;;;;4794720;29;20119;-88
2021/07/26 09:10:14;;;;;;;6.25;5.40;;;27.30;99.90;;;;;;4823074;29;20057;-89
2021/07/26 09:12:44;;;;;;;5.97;5.13;;;27.30;99.90;;;;;;4811947;29;20057;-88
2021/07/26 09:15:31;;;;;;;5.72;5.13;;;27.30;99.90;;;;;;4819869;29;20055;-89
2021/07/26 09:18:00;;;;;;;9.55;5.25;;;27.50;99.90;;;;;;4811088;29;20046;-88
2021/07/26 09:20:30;;;;;;;6.32;4.95;;;27.60;99.90;;;;;;4814139;29;20197;-88
2021/07/26 09:23:16;;;;;;;4.10;3.70;;;27.60;99.90;;;;;;4813114;29;20123;-89
2021/07/26 09:25:45;;;;;;;6.68;5.35;;;27.60;99.90;;;;;;4812100;29;20054;-89
2021/07/26 09:28:20;;;;;;;6.45;5.32;;;27.60;99.90;;;;;;4811363;29;20125;-88
2021/07/26 09:30:52;;;;;;;4.88;4.38;;;27.80;99.90;;;;;;4813287;29;20042;-88
2021/07/26 09:33:23;;;;;;;5.75;5.25;;;27.90;99.90;;;;;;4818308;29;20338;-87
2021/07/26 09:36:18;;;;;;;5.40;3.78;;;28.00;99.80;;;;;;4813568;29;20058;-88
2021/07/26 09:38:58;;;;;;;7.32;5.07;;;28.10;99.90;;;;;;4815044;29;20073;-87
2021/07/26 09:41:47;;;;;;;5.93;4.72;;;28.20;99.50;;;;;;4816859;29;20377;-87
2021/07/26 09:44:20;;;;;;;7.10;4.63;;;28.40;98.10;;;;;;4817481;29;20420;-88
2021/07/26 09:46:47;;;;;;;9.48;5.47;;;28.40;98.00;;;;;;4818505;29;20062;-88
2021/07/26 09:49:15;;;;;;;7.32;5.05;;;28.40;98.20;;;;;;4818935;29;20082;-87
2021/07/26 09:52:01;;;;;;;5.43;4.90;;;28.50;98.60;;;;;;4815462;29;20058;-87
2021/07/26 09:54:45;;;;;;;10.25;5.75;;;28.60;97.50;;;;;;4817091;29;20077;-87
2021/07/26 09:57:26;;;;;;;10.65;5.18;;;28.60;97.70;;;;;;4816375;29;20065;-88
2021/07/26 09:59:55;;;;;;;13.60;6.20;;;28.70;97.20;;;;;;4809393;29;20054;-88
2021/07/26 10:02:24;;;;;;;5.63;5.13;;;28.80;97.10;;;;;;4815167;29;20084;-86
2021/07/26 10:04:52;;;;;;;;;;;28.90;97.30;;;;;;4811977;29;20136;-88
2021/07/26 10:07:19;;;;;;;5.05;4.55;;;29.10;97.20;;;;;;4818054;29;20239;-86
2021/07/26 10:09:47;;;;;;;8.77;5.47;;;29.10;96.70;;;;;;4806895;29;20045;-88
2021/07/26 10:12:19;;;;;;;5.75;4.55;;;29.20;96.40;;;;;;4816821;29;20067;-87
2021/07/26 10:14:49;;;;;;;5.63;5.13;;;29.20;96.20;;;;;;4831909;29;20559;-86
2021/07/26 10:17:16;;;;;;;5.88;4.25;;;29.10;95.30;;;;;;4816674;29;20549;-87
2021/07/26 10:19:44;;;;;;;7.88;4.38;;;29.10;95.70;;;;;;4805631;29;20058;-87
2021/07/26 10:22:16;;;;;;;4.93;4.30;;;29.10;95.60;;;;;;4815680;29;20053;-88
2021/07/26 10:24:50;;;;;;;6.45;5.45;;;29.10;95.40;;;;;;4807074;29;20065;-87
2021/07/26 10:27:22;;;;;;;5.20;4.70;;;29.10;94.40;;;;;;4829263;29;20069;-87
2021/07/26 10:29:54;;;;;;;6.78;4.60;;;29.20;94.40;;;;;;4809167;29;20481;-87
2021/07/26 10:32:30;;;;;;;9.30;5.05;;;29.40;94.40;;;;;;4817359;29;20548;-87
2021/07/26 10:34:58;;;;;;;5.15;4.32;;;29.50;94.50;;;;;;4816209;29;20081;-87
2021/07/26 10:37:37;;;;;;;7.97;4.57;;;29.50;94.30;;;;;;4810581;29;20430;-87
2021/07/26 10:40:36;;;;;;;6.93;4.87;;;29.60;93.90;;;;;;4816845;29;20129;-89
2021/07/26 10:43:03;;;;;;;5.72;4.78;;;29.70;94.50;;;;;;4812239;29;20051;-87
2021/07/26 10:45:34;;;;;;;5.53;4.68;;;29.80;94.20;;;;;;4804030;29;21103;-89
2021/07/26 10:48:24;;;;;;;5.47;4.47;;;29.80;93.70;;;;;;4798007;29;20122;-87
2021/07/26 10:50:55;;;;;;;6.63;4.13;;;29.90;93.90;;;;;;4815610;29;20385;-87
2021/07/26 10:53:37;;;;;;;7.32;5.60;;;29.90;94.20;;;;;;4814762;29;20081;-88
2021/07/26 10:56:13;;;;;;;6.53;5.10;;;29.90;93.50;;;;;;4815845;29;20348;-86
2021/07/26 10:58:43;;;;;;;11.52;4.88;;;29.80;93.50;;;;;;4816236;29;20076;-86
2021/07/26 11:01:18;;;;;;;;;;;29.80;93.80;;;;;;4817883;29;20057;-86
2021/07/26 11:03:47;;;;;;;5.22;4.70;;;29.80;94.00;;;;;;4811975;29;19932;-87
2021/07/26 11:06:39;;;;;;;5.60;4.72;;;29.90;93.80;;;;;;4814018;29;20071;-87
2021/07/26 11:09:21;;;;;;;9.20;4.80;;;30.00;93.20;;;;;;4811384;29;20050;-88
2021/07/26 11:11:49;;;;;;;5.28;4.13;;;30.10;93.60;;;;;;4820848;29;20388;-86
2021/07/26 11:14:17;;;;;;;6.82;4.07;;;30.20;93.50;;;;;;4800412;29;20046;-87
2021/07/26 11:16:51;;;;;;;4.43;4.03;;;30.20;94.00;;;;;;4816231;29;20933;-87
2021/07/26 11:19:37;;;;;;;7.20;4.28;;;30.40;93.10;;;;;;4815500;29;20050;-88
2021/07/26 11:22:14;;;;;;;8.52;4.78;;;30.50;92.80;;;;;;4796889;29;20043;-88
2021/07/26 11:24:41;;;;;;;4.90;4.40;;;30.60;92.10;;;;;;4810259;29;20069;-88
2021/07/26 11:27:10;;;;;;;5.07;4.65;;;30.50;92.30;;;;;;4808635;29;20054;-86
2021/07/26 11:29:37;;;;;;;4.88;4.47;;;30.40;92.60;;;;;;4814696;29;20111;-86
2021/07/26 11:32:04;;;;;;;5.47;4.05;;;30.30;92.70;;;;;;4816152;29;20857;-87
2021/07/26 11:34:36;;;;;;;6.70;4.35;;;30.40;92.60;;;;;;4800135;29;20042;-87
2021/07/26 11:37:13;;;;;;;5.63;5.13;;;30.50;92.50;;;;;;4814535;29;20054;-86
2021/07/26 11:40:00;;;;;;;4.93;4.43;;;30.60;92.10;;;;;;4811084;29;20050;-87
2021/07/26 11:42:36;;;;;;;4.85;4.07;;;30.70;92.30;;;;;;4801154;29;20091;-88
2021/07/26 11:45:07;;;;;;;5.97;5.45;;;30.90;92.20;;;;;;4811456;29;20058;-88
2021/07/26 11:47:39;;;;;;;6.53;5.13;;;31.00;92.10;;;;;;4812984;29;20130;-87
2021/07/26 11:50:08;;;;;;;4.70;4.07;;;31.10;90.80;;;;;;4816526;29;20050;-85
2021/07/26 11:52:37;;;;;;;5.78;4.30;;;31.30;90.70;;;;;;4815799;29;20054;-87
2021/07/26 11:55:14;;;;;;;5.22;4.18;;;31.30;91.70;;;;;;4806711;29;20114;-86
2021/07/26 11:58:13;;;;;;;8.70;4.35;;;31.30;90.80;;;;;;4811572;29;20144;-88
2021/07/26 12:00:46;;;;;;;7.40;4.55;;;31.20;91.50;;;;;;4798771;29;20659;-86
2021/07/26 12:03:17;;;;;;;8.85;4.72;;;31.10;89.70;;;;;;4816699;29;20540;-86
2021/07/26 12:05:44;;;;;;;6.90;4.10;;;31.00;89.40;;;;;;4814447;29;20046;-87
2021/07/26 12:08:13;;;;;;;4.57;4.13;;;31.00;90.40;;;;;;4819369;29;20102;-87
2021/07/26 12:10:41;;;;;;;4.07;3.72;;;30.80;90.70;;;;;;4810475;29;20054;-87
2021/07/26 12:13:17;;;;;;;9.98;4.30;;;30.80;90.80;;;;;;4816604;29;20057;-86
2021/07/26 12:15:46;;;;;;;4.78;4.10;;;30.70;90.50;;;;;;4799945;29;20539;-88
2021/07/26 12:18:33;;;;;;;6.50;3.95;;;30.60;90.20;;;;;;4815161;29;20237;-87
2021/07/26 12:21:01;;;;;;;6.20;4.63;;;30.50;90.50;;;;;;4814807;29;20062;-88
2021/07/26 12:23:29;;;;;;;7.85;4.05;;;30.40;90.60;;;;;;4805011;29;20058;-87
2021/07/26 12:26:14;;;;;;;3.83;3.45;;;30.40;90.50;;;;;;4815350;29;20054;-85
2021/07/26 12:28:50;;;;;;;4.57;3.63;;;30.30;90.60;;;;;;4821041;29;20412;-87
2021/07/26 12:31:24;;;;;;;6.30;4.80;;;30.40;91.60;;;;;;4814834;29;20145;-87
2021/07/26 12:34:11;;;;;;;5.57;4.13;;;30.60;91.10;;;;;;4813059;29;20051;-88
2021/07/26 12:36:38;;;;;;;6.15;4.40;;;30.80;90.00;;;;;;4816857;29;20841;-87
2021/07/26 12:39:10;;;;;;;6.32;4.53;;;30.90;90.00;;;;;;4795508;29;20119;-87
2021/07/26 12:41:39;;;;;;;4.55;3.88;;;30.80;89.30;;;;;;4811832;29;20054;-87
2021/07/26 12:44:36;;;;;;;4.57;3.75;;;30.70;88.80;;;;;;4815715;29;20569;-87
2021/07/26 12:47:24;;;;;;;12.82;5.15;;;30.50;89.40;;;;;;4812979;29;20397;-87
2021/07/26 12:49:52;;;;;;;5.70;4.60;;;30.40;88.90;;;;;;4820450;29;20050;-89
2021/07/26 12:52:19;;;;;;;6.63;4.20;;;30.40;90.10;;;;;;4803012;29;20145;-88
2021/07/26 12:54:46;;;;;;;6.47;3.60;;;30.30;88.70;;;;;;4812214;29;20083;-87
2021/07/26 12:57:12;;;;;;;4.78;4.32;;;30.40;89.20;;;;;;4810005;29;20065;-87
2021/07/26 12:59:39;;;;;;;7.78;4.72;;;30.40;89.20;;;;;;4808707;29;20063;-86
2021/07/26 13:02:06;;;;;;;4.95;3.67;;;30.30;89.70;;;;;;4806620;29;21466;-86
2021/07/26 13:04:33;;;;;;;4.28;3.88;;;30.30;87.40;;;;;;4807809;29;20078;-88
2021/07/26 13:07:01;;;;;;;5.47;4.30;;;30.20;89.30;;;;;;4810146;29;20149;-86
2021/07/26 13:09:27;;;;;;;8.23;4.45;;;30.20;88.70;;;;;;4817894;29;20103;-86